Time;durP1;ratioP1;P1;durP2;ratioP2;P2;SDS_P1;SDS_P2;PMS_P1;PMS_P2;Temp;Humidity;BMP_temperature;BMP_pressure;BME280_temperature;BME280_humidity;BME280_pressure;Samples;Min_cycle;Max_cycle;Signal;HPM_P1;HPM_P2
2021/08/26 00:05:54;;;;;;;14.23;8.80;;;23.80;44.90;;;;;;6176765;28;80853;-65
2021/08/26 00:08:54;;;;;;;16.38;8.93;;;23.80;44.70;;;;;;6162110;28;80377;-65
2021/08/26 00:11:56;;;;;;;15.60;8.88;;;23.80;44.80;;;;;;6166097;28;80555;-65
2021/08/26 00:14:56;;;;;;;16.80;9.05;;;23.80;44.80;;;;;;6163902;28;81571;-66
2021/08/26 00:17:58;;;;;;;16.20;8.77;;;23.80;44.70;;;;;;6167910;28;80725;-66
2021/08/26 00:20:59;;;;;;;13.65;8.35;;;23.80;44.70;;;;;;6174186;28;80839;-65
2021/08/26 00:23:59;;;;;;;13.18;8.20;;;23.80;44.80;;;;;;6167013;28;81274;-66
2021/08/26 00:27:00;;;;;;;12.30;7.90;;;23.70;44.90;;;;;;6165319;28;80266;-66
2021/08/26 00:30:00;;;;;;;13.13;7.75;;;23.80;44.90;;;;;;6155162;28;82116;-65
2021/08/26 00:33:01;;;;;;;12.45;7.75;;;23.80;44.90;;;;;;6170279;28;80390;-65
2021/08/26 00:36:01;;;;;;;13.98;8.30;;;23.70;44.70;;;;;;6173384;28;80414;-66
2021/08/26 00:39:02;;;;;;;15.05;8.38;;;23.70;44.70;;;;;;6153741;28;81712;-66
2021/08/26 00:42:02;;;;;;;15.43;7.63;;;23.70;44.90;;;;;;6167790;28;80485;-65
2021/08/26 00:45:03;;;;;;;14.43;7.78;;;23.70;44.90;;;;;;6172022;28;81727;-66
2021/08/26 00:48:03;;;;;;;15.23;8.15;;;23.70;44.70;;;;;;6170247;28;81530;-67
2021/08/26 00:51:04;;;;;;;11.50;7.15;;;23.70;44.80;;;;;;6174534;28;81799;-66
2021/08/26 00:54:04;;;;;;;14.77;7.60;;;23.70;44.80;;;;;;6170798;28;80699;-65
2021/08/26 00:57:05;;;;;;;13.85;7.47;;;23.70;44.90;;;;;;6156799;28;80917;-66
2021/08/26 01:00:05;;;;;;;13.82;7.80;;;23.70;44.90;;;;;;6147893;28;80352;-66
2021/08/26 01:03:06;;;;;;;11.88;7.38;;;23.70;44.90;;;;;;6168284;28;80252;-66
2021/08/26 01:06:06;;;;;;;12.73;7.82;;;23.70;44.90;;;;;;6174188;28;80482;-65
2021/08/26 01:09:07;;;;;;;11.90;7.13;;;23.70;44.90;;;;;;6173742;28;81967;-65
2021/08/26 01:12:07;;;;;;;14.60;7.88;;;23.70;44.90;;;;;;6166865;28;80610;-65
2021/08/26 01:15:09;;;;;;;10.93;7.43;;;23.70;44.80;;;;;;6169228;28;80548;-65
2021/08/26 01:18:10;;;;;;;13.10;7.43;;;23.70;45.10;;;;;;6170158;28;83125;-66
2021/08/26 01:21:10;;;;;;;9.77;7.05;;;23.70;44.80;;;;;;6155113;28;80880;-66
2021/08/26 01:24:11;;;;;;;11.55;7.18;;;23.70;45.00;;;;;;6152757;28;80554;-67
2021/08/26 01:27:11;;;;;;;13.50;7.82;;;23.70;45.00;;;;;;6164145;28;80311;-66
2021/08/26 01:30:12;;;;;;;9.70;6.32;;;23.70;44.80;;;;;;6172685;28;80474;-67
2021/08/26 01:33:12;;;;;;;11.95;6.97;;;23.70;45.00;;;;;;6160783;28;80643;-68
2021/08/26 01:36:13;;;;;;;16.77;7.70;;;23.70;45.00;;;;;;6174179;28;80718;-67
2021/08/26 01:39:13;;;;;;;13.20;7.35;;;23.70;44.90;;;;;;6163536;28;80408;-66
2021/08/26 01:42:14;;;;;;;9.63;6.95;;;23.70;45.10;;;;;;6168340;28;80624;-67
2021/08/26 01:45:14;;;;;;;12.63;7.20;;;23.70;44.90;;;;;;6158772;28;80815;-66
2021/08/26 01:48:15;;;;;;;11.05;6.60;;;23.70;45.00;;;;;;6165725;28;80464;-67
2021/08/26 01:51:15;;;;;;;10.85;6.95;;;23.70;45.00;;;;;;6165044;28;80734;-67
2021/08/26 01:54:16;;;;;;;13.38;7.30;;;23.60;45.00;;;;;;6162435;28;81587;-67
2021/08/26 01:57:16;;;;;;;11.32;6.95;;;23.70;45.20;;;;;;6175336;28;80587;-67
2021/08/26 02:00:17;;;;;;;10.30;6.75;;;23.60;45.00;;;;;;6169778;28;80454;-67
2021/08/26 02:03:17;;;;;;;13.93;6.97;;;23.70;45.10;;;;;;6160155;28;83614;-67
2021/08/26 02:06:18;;;;;;;12.35;7.63;;;23.60;45.00;;;;;;6155628;28;81141;-67
2021/08/26 02:09:18;;;;;;;9.77;6.63;;;23.60;44.90;;;;;;6151726;28;80951;-67
2021/08/26 02:12:19;;;;;;;13.23;8.18;;;23.60;45.20;;;;;;6166883;28;81745;-67
2021/08/26 02:15:19;;;;;;;11.82;6.85;;;23.60;45.20;;;;;;6170330;28;81283;-67
2021/08/26 02:18:20;;;;;;;11.52;6.97;;;23.60;45.00;;;;;;6163243;28;80396;-67
2021/08/26 02:21:20;;;;;;;13.60;7.07;;;23.60;45.20;;;;;;6155433;28;82880;-67
2021/08/26 02:24:21;;;;;;;11.98;6.65;;;23.60;45.10;;;;;;6170178;28;80486;-66
2021/08/26 02:27:21;;;;;;;13.05;7.13;;;23.60;45.20;;;;;;6166561;28;81154;-67
2021/08/26 02:30:22;;;;;;;10.93;6.82;;;23.60;45.30;;;;;;6169205;28;80809;-67
2021/08/26 02:33:22;;;;;;;12.27;6.93;;;23.60;45.10;;;;;;6171579;28;80831;-66
2021/08/26 02:36:23;;;;;;;10.70;6.60;;;23.60;45.30;;;;;;6167544;28;81971;-67
2021/08/26 02:39:23;;;;;;;12.70;6.90;;;23.60;45.40;;;;;;6176467;28;80236;-66
2021/08/26 02:42:24;;;;;;;10.77;6.60;;;23.60;45.20;;;;;;6168716;28;80661;-66
2021/08/26 02:45:24;;;;;;;12.27;6.53;;;23.60;45.40;;;;;;6170262;28;80384;-66
2021/08/26 02:48:25;;;;;;;11.13;6.68;;;23.60;45.20;;;;;;6171121;28;80783;-66
2021/08/26 02:51:25;;;;;;;10.32;6.82;;;23.60;45.40;;;;;;6174693;28;82727;-65
2021/08/26 02:54:26;;;;;;;11.63;6.88;;;23.60;45.30;;;;;;6165123;28;80702;-66
2021/08/26 02:57:26;;;;;;;10.80;6.70;;;23.60;45.30;;;;;;6159172;28;80361;-66
2021/08/26 03:00:27;;;;;;;12.55;6.95;;;23.60;45.40;;;;;;6174224;28;80706;-65
2021/08/26 03:03:27;;;;;;;10.93;6.70;;;23.60;45.40;;;;;;6161525;28;82447;-65
2021/08/26 03:06:28;;;;;;;10.77;6.70;;;23.60;45.50;;;;;;6160991;28;82162;-65
2021/08/26 03:09:28;;;;;;;10.48;6.68;;;23.60;45.50;;;;;;6177742;28;80825;-65
2021/08/26 03:12:28;;;;;;;10.30;6.70;;;23.60;45.40;;;;;;6167430;28;80228;-65
2021/08/26 03:15:29;;;;;;;8.48;5.57;;;23.60;45.50;;;;;;6164518;28;80402;-65
2021/08/26 03:18:29;;;;;;;9.82;6.20;;;23.60;45.60;;;;;;6161352;28;80846;-66
2021/08/26 03:21:30;;;;;;;10.55;6.40;;;23.60;45.90;;;;;;6160191;28;81250;-65
2021/08/26 03:24:30;;;;;;;8.93;5.63;;;23.60;45.40;;;;;;6161114;28;80944;-66
2021/08/26 03:27:31;;;;;;;11.75;7.18;;;23.60;45.30;;;;;;6163472;28;80313;-67
2021/08/26 03:30:31;;;;;;;11.60;6.45;;;23.60;45.90;;;;;;6170782;28;82370;-66
2021/08/26 03:33:32;;;;;;;12.38;6.35;;;23.60;45.50;;;;;;6168601;28;80336;-65
2021/08/26 03:36:32;;;;;;;10.48;6.75;;;23.60;45.80;;;;;;6165235;28;81191;-65
2021/08/26 03:39:33;;;;;;;10.98;5.93;;;23.60;46.20;;;;;;6173008;28;81797;-66
2021/08/26 03:42:33;;;;;;;10.23;6.75;;;23.60;46.10;;;;;;6161402;28;80197;-65
2021/08/26 03:45:34;;;;;;;10.88;6.28;;;23.60;46.10;;;;;;6170036;28;80781;-65
2021/08/26 03:48:34;;;;;;;21.27;6.45;;;23.60;46.10;;;;;;6178583;28;80897;-65
2021/08/26 03:51:35;;;;;;;9.75;6.38;;;23.60;46.20;;;;;;6164280;28;80682;-66
2021/08/26 03:54:35;;;;;;;11.52;6.68;;;23.60;46.20;;;;;;6161442;28;80903;-68
2021/08/26 03:57:36;;;;;;;9.70;6.30;;;23.60;46.50;;;;;;6154784;28;81727;-71
2021/08/26 04:00:36;;;;;;;12.93;7.47;;;23.60;46.40;;;;;;6176184;28;83265;-67
2021/08/26 04:03:37;;;;;;;32.13;8.48;;;23.60;46.00;;;;;;6159152;28;80616;-66
2021/08/26 04:06:37;;;;;;;17.40;7.95;;;23.60;46.70;;;;;;6161724;28;80870;-67
2021/08/26 04:09:38;;;;;;;18.02;7.82;;;23.60;48.00;;;;;;6163652;28;81135;-70
2021/08/26 04:12:38;;;;;;;20.58;8.07;;;23.70;48.40;;;;;;6166441;28;80596;-67
2021/08/26 04:15:39;;;;;;;15.55;7.93;;;23.70;48.20;;;;;;6150457;28;80539;-69
2021/08/26 04:18:40;;;;;;;15.88;7.38;;;23.70;48.40;;;;;;6148509;28;80466;-69
2021/08/26 04:21:40;;;;;;;15.07;7.78;;;23.70;48.40;;;;;;6175990;28;80179;-68
2021/08/26 04:24:41;;;;;;;14.52;7.68;;;23.70;48.30;;;;;;6174506;28;80802;-69
2021/08/26 04:27:41;;;;;;;21.00;8.00;;;23.70;48.40;;;;;;6168468;28;80387;-66
2021/08/26 04:30:41;;;;;;;17.58;7.85;;;23.70;48.20;;;;;;6156259;28;80723;-66
2021/08/26 04:33:42;;;;;;;15.93;7.80;;;23.70;48.50;;;;;;6164265;28;80547;-66
2021/08/26 04:36:42;;;;;;;23.38;8.23;;;23.70;48.50;;;;;;6176563;28;83160;-65
2021/08/26 04:39:43;;;;;;;22.17;7.57;;;23.70;49.00;;;;;;6175459;28;80991;-66
2021/08/26 04:42:43;;;;;;;21.42;7.70;;;23.70;49.00;;;;;;6172910;28;80423;-66
2021/08/26 04:45:44;;;;;;;16.80;7.15;;;23.70;49.20;;;;;;6160341;28;80509;-67
2021/08/26 04:48:44;;;;;;;18.63;7.97;;;23.70;49.60;;;;;;6153561;28;84006;-66
2021/08/26 04:51:45;;;;;;;15.25;7.55;;;23.80;50.20;;;;;;6157288;28;80564;-67
2021/08/26 04:54:45;;;;;;;13.65;7.40;;;23.80;50.20;;;;;;6162156;28;80582;-66
2021/08/26 04:57:46;;;;;;;18.08;7.90;;;23.80;50.20;;;;;;6170721;28;80501;-66
2021/08/26 05:00:46;;;;;;;15.63;7.53;;;23.80;50.00;;;;;;6174982;28;80849;-66
2021/08/26 05:03:47;;;;;;;15.82;7.68;;;23.80;50.40;;;;;;6170464;28;80422;-66
2021/08/26 05:06:47;;;;;;;18.80;7.43;;;23.80;49.90;;;;;;6162942;28;81018;-66
2021/08/26 05:09:48;;;;;;;15.98;7.05;;;23.80;49.70;;;;;;6163221;28;81853;-66
2021/08/26 05:12:49;;;;;;;14.18;7.70;;;23.80;50.00;;;;;;6170067;28;80438;-66
2021/08/26 05:15:49;;;;;;;19.83;7.00;;;23.80;50.30;;;;;;6170021;28;80304;-65
2021/08/26 05:18:50;;;;;;;19.27;7.43;;;23.80;50.10;;;;;;6158912;28;82074;-65
2021/08/26 05:21:50;;;;;;;16.83;8.00;;;23.80;50.00;;;;;;6159585;28;80313;-66
2021/08/26 05:24:51;;;;;;;19.98;6.97;;;23.80;50.80;;;;;;6170377;28;81169;-66
2021/08/26 05:27:52;;;;;;;18.75;7.20;;;23.80;49.70;;;;;;6166994;28;81832;-66
2021/08/26 05:30:52;;;;;;;22.70;7.30;;;23.80;49.30;;;;;;6170279;28;80432;-66
2021/08/26 05:33:53;;;;;;;14.65;7.50;;;23.80;49.90;;;;;;6174625;28;80918;-65
2021/08/26 05:36:53;;;;;;;12.20;6.78;;;23.80;49.80;;;;;;6158914;28;80551;-66
2021/08/26 05:39:54;;;;;;;14.18;7.28;;;23.80;49.50;;;;;;6153440;28;82585;-65
2021/08/26 05:42:54;;;;;;;13.75;6.88;;;23.80;49.90;;;;;;6158426;28;81619;-66
2021/08/26 05:45:55;;;;;;;10.45;6.70;;;23.80;50.40;;;;;;6151924;28;81137;-65
2021/08/26 05:48:55;;;;;;;11.93;6.18;;;23.80;50.70;;;;;;6160409;28;83020;-65
2021/08/26 05:51:56;;;;;;;15.70;6.97;;;23.80;50.30;;;;;;6178750;28;80865;-66
2021/08/26 05:54:56;;;;;;;11.35;6.72;;;23.80;49.70;;;;;;6171138;28;81943;-65
2021/08/26 05:57:57;;;;;;;12.80;6.60;;;23.80;50.70;;;;;;6175138;28;81083;-65
2021/08/26 06:00:57;;;;;;;15.50;7.13;;;23.80;49.90;;;;;;6158003;28;82313;-66
2021/08/26 06:03:58;;;;;;;12.82;6.75;;;23.70;50.80;;;;;;6163742;28;80504;-65
2021/08/26 06:06:58;;;;;;;13.05;6.32;;;23.80;50.40;;;;;;6168323;28;80840;-66
2021/08/26 06:09:59;;;;;;;13.25;6.00;;;23.80;51.30;;;;;;6175896;28;83595;-64
2021/08/26 06:12:59;;;;;;;10.13;6.43;;;23.80;51.70;;;;;;6165381;28;80417;-66
2021/08/26 06:16:00;;;;;;;14.15;6.93;;;23.70;51.00;;;;;;6164038;28;82959;-65
2021/08/26 06:19:00;;;;;;;10.68;6.25;;;23.70;51.90;;;;;;6162333;28;81509;-66
2021/08/26 06:22:01;;;;;;;13.15;6.28;;;23.80;51.50;;;;;;6169876;28;80389;-65
2021/08/26 06:25:01;;;;;;;12.70;6.32;;;23.80;51.30;;;;;;6171707;28;80707;-65
2021/08/26 06:28:02;;;;;;;13.88;5.82;;;23.80;51.60;;;;;;6172041;28;80336;-65
2021/08/26 06:31:03;;;;;;;15.98;6.97;;;23.80;51.30;;;;;;6167301;28;81479;-64
2021/08/26 06:34:04;;;;;;;11.23;6.50;;;23.80;51.60;;;;;;6175519;28;80811;-65
2021/08/26 06:37:04;;;;;;;19.80;6.75;;;23.70;51.00;;;;;;6193601;28;80517;-64
2021/08/26 06:40:05;;;;;;;15.18;6.60;;;23.80;50.70;;;;;;6167660;28;80424;-65
2021/08/26 06:43:05;;;;;;;15.52;6.18;;;23.80;50.60;;;;;;6168772;28;81508;-65
2021/08/26 06:46:06;;;;;;;14.40;6.13;;;23.80;51.20;;;;;;6174398;28;80753;-64
2021/08/26 06:49:06;;;;;;;11.50;6.20;;;23.70;52.00;;;;;;6166336;28;80495;-65
2021/08/26 06:52:07;;;;;;;13.77;6.60;;;23.80;51.20;;;;;;6171996;28;80446;-65
2021/08/26 06:55:07;;;;;;;13.40;6.10;;;23.80;50.70;;;;;;6166418;28;80675;-65
2021/08/26 06:58:08;;;;;;;19.70;6.35;;;23.80;51.30;;;;;;6157146;28;81575;-64
2021/08/26 07:01:08;;;;;;;14.60;5.97;;;23.80;51.60;;;;;;6173161;28;81866;-64
2021/08/26 07:04:09;;;;;;;16.38;6.43;;;23.80;51.20;;;;;;6164148;28;80550;-64
2021/08/26 07:07:09;;;;;;;11.77;6.38;;;23.80;51.70;;;;;;6168609;28;81478;-64
2021/08/26 07:10:10;;;;;;;12.00;6.40;;;23.80;50.90;;;;;;6163653;28;80100;-64
2021/08/26 07:13:10;;;;;;;13.43;6.25;;;23.80;51.90;;;;;;6161611;28;80532;-64
2021/08/26 07:16:11;;;;;;;16.63;5.97;;;23.80;52.10;;;;;;6172470;28;80725;-64
2021/08/26 07:19:11;;;;;;;13.45;6.68;;;23.80;52.10;;;;;;6173247;28;83461;-64
2021/08/26 07:22:11;;;;;;;19.00;7.03;;;23.80;52.30;;;;;;6166887;28;80901;-64
2021/08/26 07:25:12;;;;;;;10.98;6.53;;;23.80;51.70;;;;;;6175888;28;80876;-64
2021/08/26 07:28:12;;;;;;;10.07;6.13;;;23.80;52.10;;;;;;6154839;28;80909;-63
2021/08/26 07:31:13;;;;;;;14.38;6.18;;;23.80;51.20;;;;;;6162123;28;81499;-63
2021/08/26 07:34:13;;;;;;;12.98;6.07;;;23.80;50.90;;;;;;6157612;28;80962;-63
2021/08/26 07:37:14;;;;;;;10.60;6.22;;;23.80;51.40;;;;;;6162431;28;83187;-64
2021/08/26 07:40:14;;;;;;;14.38;6.43;;;23.80;51.40;;;;;;6176434;28;81475;-63
2021/08/26 07:43:15;;;;;;;11.73;5.82;;;23.80;51.80;;;;;;6174200;28;82468;-64
2021/08/26 07:46:15;;;;;;;13.25;5.93;;;23.80;51.70;;;;;;6164973;28;81724;-64
2021/08/26 07:49:16;;;;;;;11.65;6.47;;;23.80;52.10;;;;;;6170434;28;80625;-65
2021/08/26 07:52:16;;;;;;;11.85;5.90;;;23.80;51.90;;;;;;6148463;28;80936;-63
2021/08/26 07:55:17;;;;;;;13.32;5.57;;;23.80;52.80;;;;;;6159380;28;80424;-63
2021/08/26 07:58:18;;;;;;;12.05;6.05;;;23.80;52.00;;;;;;6156332;28;81396;-64
2021/08/26 08:01:18;;;;;;;10.38;5.57;;;23.80;51.90;;;;;;6162000;28;80808;-64
2021/08/26 08:04:18;;;;;;;12.77;5.80;;;23.90;51.70;;;;;;6158320;28;80417;-63
2021/08/26 08:07:19;;;;;;;11.70;6.20;;;23.80;52.00;;;;;;6165373;28;81756;-63
2021/08/26 08:10:19;;;;;;;8.75;5.15;;;23.80;51.90;;;;;;6156325;28;82757;-64
2021/08/26 08:13:20;;;;;;;15.57;6.45;;;23.90;51.70;;;;;;6160799;28;81496;-65
2021/08/26 08:16:20;;;;;;;11.93;5.95;;;23.80;51.30;;;;;;6165261;28;81324;-64
2021/08/26 08:19:21;;;;;;;12.40;5.65;;;23.90;51.50;;;;;;6153772;28;80287;-64
2021/08/26 08:22:21;;;;;;;11.10;6.03;;;23.90;51.50;;;;;;6160321;28;81171;-64
2021/08/26 08:25:22;;;;;;;10.18;5.90;;;23.90;51.50;;;;;;6154326;28;80528;-63
2021/08/26 08:28:22;;;;;;;9.60;5.60;;;23.90;51.50;;;;;;6157103;28;81864;-64
2021/08/26 08:31:23;;;;;;;11.02;5.68;;;23.90;52.00;;;;;;6160598;28;80590;-63
2021/08/26 08:34:23;;;;;;;10.73;5.65;;;23.90;51.40;;;;;;6156654;28;80500;-64
2021/08/26 08:37:24;;;;;;;10.52;5.70;;;23.90;51.40;;;;;;6161112;28;80251;-64
2021/08/26 08:40:25;;;;;;;10.82;5.60;;;23.90;51.30;;;;;;6168688;28;82153;-63
2021/08/26 08:43:26;;;;;;;10.00;5.35;;;23.80;51.40;;;;;;6165971;28;81182;-63
2021/08/26 08:46:26;;;;;;;10.00;6.18;;;23.90;51.30;;;;;;6157398;28;80542;-63
2021/08/26 08:49:27;;;;;;;7.82;5.35;;;23.90;51.30;;;;;;6155986;28;81110;-63
2021/08/26 08:52:27;;;;;;;10.63;6.10;;;23.90;51.30;;;;;;6158194;28;80488;-63
2021/08/26 08:55:28;;;;;;;12.70;6.10;;;23.90;51.40;;;;;;6150813;28;80365;-63
2021/08/26 08:58:28;;;;;;;10.60;6.18;;;23.90;51.40;;;;;;6152969;28;80446;-63
2021/08/26 09:01:29;;;;;;;8.40;5.38;;;23.90;51.30;;;;;;6158918;28;80662;-63
2021/08/26 09:04:29;;;;;;;10.10;5.93;;;23.90;51.30;;;;;;6152941;28;83026;-64
2021/08/26 09:07:30;;;;;;;11.02;5.72;;;23.90;51.30;;;;;;6165006;28;80091;-64
2021/08/26 09:10:30;;;;;;;9.30;5.63;;;23.90;51.40;;;;;;6153877;28;80121;-64
2021/08/26 09:13:31;;;;;;;8.10;5.30;;;23.90;51.20;;;;;;6161445;28;81698;-64
2021/08/26 09:16:31;;;;;;;10.55;5.60;;;23.90;51.00;;;;;;6161087;28;81933;-64
2021/08/26 09:19:33;;;;;;;11.73;5.53;;;23.90;51.00;;;;;;6157409;28;81113;-64
2021/08/26 09:22:34;;;;;;;11.35;6.03;;;23.80;51.40;;;;;;6157264;28;80396;-64
2021/08/26 09:25:34;;;;;;;8.57;5.25;;;23.80;51.30;;;;;;6151296;28;80430;-65
2021/08/26 09:28:35;;;;;;;9.15;5.47;;;23.80;51.40;;;;;;6158293;28;80400;-64
2021/08/26 09:31:35;;;;;;;9.80;5.88;;;23.80;51.30;;;;;;6156261;28;81998;-65
2021/08/26 09:34:37;;;;;;;9.07;5.82;;;23.80;51.20;;;;;;6171296;28;80356;-63
2021/08/26 09:37:37;;;;;;;7.90;5.22;;;23.80;51.20;;;;;;6174984;28;80533;-65
2021/08/26 09:40:38;;;;;;;11.40;5.95;;;23.80;51.80;;;;;;6150272;28;81241;-67
2021/08/26 09:43:38;;;;;;;9.75;6.10;;;23.80;51.50;;;;;;6173292;28;80839;-65
2021/08/26 09:46:39;;;;;;;11.25;7.20;;;23.80;51.70;;;;;;6174182;28;80887;-65
2021/08/26 09:49:39;;;;;;;10.93;7.10;;;23.80;52.30;;;;;;6166221;28;80264;-65
2021/08/26 09:52:40;;;;;;;12.00;6.72;;;23.80;52.50;;;;;;6167479;28;81500;-64
2021/08/26 09:55:40;;;;;;;12.30;8.43;;;23.80;53.70;;;;;;6155850;28;80393;-64
2021/08/26 09:58:41;;;;;;;12.07;8.00;;;23.80;54.10;;;;;;6173423;28;80321;-64
2021/08/26 10:01:41;;;;;;;9.43;7.00;;;23.80;54.20;;;;;;6171541;28;81500;-63
2021/08/26 10:04:42;;;;;;;11.13;7.10;;;23.80;54.50;;;;;;6166946;28;80473;-63
2021/08/26 10:07:45;;;;;;;10.30;6.72;;;23.80;54.10;;;;;;6174676;28;80515;-64
2021/08/26 10:10:46;;;;;;;18.45;9.38;;;23.90;55.30;;;;;;6163026;28;82037;-63
2021/08/26 10:13:46;;;;;;;20.17;10.15;;;23.90;56.70;;;;;;6168431;28;80358;-63
2021/08/26 10:16:47;;;;;;;28.98;10.95;;;23.90;56.30;;;;;;6169110;28;85833;-63
2021/08/26 10:19:48;;;;;;;30.83;12.23;;;23.90;56.20;;;;;;6149903;28;83518;-63
2021/08/26 10:22:48;;;;;;;33.95;13.23;;;23.90;56.20;;;;;;6165489;28;84569;-63
2021/08/26 10:25:49;;;;;;;33.35;12.48;;;23.80;55.80;;;;;;6166746;28;83536;-63
2021/08/26 10:28:49;;;;;;;26.27;11.07;;;23.90;55.80;;;;;;6155794;28;83728;-63
2021/08/26 10:31:50;;;;;;;33.03;11.57;;;23.90;56.10;;;;;;6156109;28;85192;-63
2021/08/26 10:34:50;;;;;;;27.95;10.80;;;23.90;55.90;;;;;;6166790;28;83022;-63
2021/08/26 10:37:54;;;;;;;27.58;11.15;;;23.90;55.50;;;;;;6160152;28;83418;-63
2021/08/26 10:40:55;;;;;;;26.80;10.15;;;23.90;55.30;;;;;;6156408;28;85206;-63
2021/08/26 10:43:55;;;;;;;28.75;11.13;;;23.90;55.30;;;;;;6149491;28;83501;-63
2021/08/26 10:46:56;;;;;;;22.00;9.43;;;23.90;55.00;;;;;;6158242;28;83288;-63
2021/08/26 10:49:58;;;;;;;24.70;9.40;;;23.90;54.70;;;;;;6167537;28;81630;-62
2021/08/26 10:52:58;;;;;;;22.95;9.25;;;23.90;54.40;;;;;;6175861;28;81978;-63
2021/08/26 10:55:59;;;;;;;22.65;8.98;;;23.90;54.40;;;;;;6174137;28;80281;-63
2021/08/26 10:58:59;;;;;;;22.90;9.55;;;23.90;54.40;;;;;;6161404;28;80911;-64
2021/08/26 11:02:00;;;;;;;20.40;8.45;;;23.90;54.40;;;;;;6170889;28;82492;-64
2021/08/26 11:05:00;;;;;;;17.80;8.02;;;23.90;54.50;;;;;;6166201;28;80918;-65
2021/08/26 11:08:01;;;;;;;25.40;8.50;;;23.80;53.80;;;;;;6164321;28;80431;-65
2021/08/26 11:11:01;;;;;;;15.05;6.88;;;23.80;53.40;;;;;;6172497;28;80803;-64
2021/08/26 11:14:02;;;;;;;17.27;8.10;;;23.80;52.80;;;;;;6166778;28;80269;-64
2021/08/26 11:17:02;;;;;;;18.80;7.70;;;23.80;53.50;;;;;;6175775;28;82079;-64
2021/08/26 11:20:03;;;;;;;16.20;6.65;;;23.80;53.80;;;;;;6174354;28;81218;-64
2021/08/26 11:23:04;;;;;;;18.70;6.80;;;23.80;53.30;;;;;;6172972;28;81778;-64
2021/08/26 11:26:05;;;;;;;11.35;5.78;;;23.90;54.00;;;;;;6154456;28;82077;-66
2021/08/26 11:29:05;;;;;;;15.82;6.00;;;23.90;54.30;;;;;;6160541;28;81353;-66
2021/08/26 11:32:06;;;;;;;13.80;6.57;;;23.80;53.60;;;;;;6154220;28;80483;-65
2021/08/26 11:35:06;;;;;;;13.38;6.38;;;23.90;53.50;;;;;;6164770;28;81048;-66
2021/08/26 11:38:07;;;;;;;16.13;5.57;;;23.80;53.60;;;;;;6174477;28;82168;-66
2021/08/26 11:41:07;;;;;;;18.27;6.65;;;23.90;53.60;;;;;;6170640;28;80588;-65
2021/08/26 11:44:08;;;;;;;15.90;6.45;;;23.90;53.50;;;;;;6162596;28;81175;-67
2021/08/26 11:47:08;;;;;;;11.77;5.53;;;23.90;53.40;;;;;;6171724;28;80600;-66
2021/08/26 11:50:09;;;;;;;11.30;5.57;;;23.90;53.30;;;;;;6162286;28;80557;-66
2021/08/26 11:53:09;;;;;;;9.77;4.93;;;23.80;53.60;;;;;;6160677;28;80271;-66
2021/08/26 11:56:10;;;;;;;12.43;5.35;;;23.80;53.10;;;;;;6167741;28;80570;-67
2021/08/26 11:59:10;;;;;;;13.32;5.07;;;23.80;53.20;;;;;;6154138;28;80928;-66
2021/08/26 12:02:11;;;;;;;11.63;5.22;;;23.80;52.80;;;;;;6152276;28;80528;-66
2021/08/26 12:05:11;;;;;;;16.15;5.25;;;23.90;53.00;;;;;;6161000;28;80789;-66
2021/08/26 12:08:12;;;;;;;9.32;5.35;;;23.80;52.90;;;;;;6161364;28;80902;-66
2021/08/26 12:11:12;;;;;;;8.23;4.60;;;23.80;52.80;;;;;;6165529;28;82149;-65
2021/08/26 12:14:14;;;;;;;10.75;4.82;;;23.80;53.10;;;;;;6158385;28;83634;-65
2021/08/26 12:17:15;;;;;;;10.05;5.35;;;23.80;53.30;;;;;;6159715;28;81010;-66
2021/08/26 12:20:15;;;;;;;10.55;5.10;;;23.80;53.30;;;;;;6154747;28;80379;-66
2021/08/26 12:23:16;;;;;;;10.02;4.78;;;23.80;53.00;;;;;;6158006;28;80459;-65
2021/08/26 12:26:17;;;;;;;11.27;4.85;;;23.80;53.10;;;;;;6159948;28;80879;-65
2021/08/26 12:29:17;;;;;;;11.07;4.47;;;23.80;53.00;;;;;;6156694;28;81743;-66
2021/08/26 12:32:17;;;;;;;8.73;4.57;;;23.70;53.10;;;;;;6163358;28;80598;-65
2021/08/26 12:35:18;;;;;;;8.70;4.88;;;23.80;53.20;;;;;;6161531;28;82098;-65
2021/08/26 12:38:19;;;;;;;8.02;4.47;;;23.80;53.20;;;;;;6162654;28;80708;-66
2021/08/26 12:41:22;;;;;;;7.53;4.53;;;23.80;53.20;;;;;;6160201;28;87448;-65
2021/08/26 12:44:23;;;;;;;8.52;4.32;;;23.80;53.20;;;;;;6150573;28;80408;-65
2021/08/26 12:47:23;;;;;;;7.55;4.20;;;23.80;53.30;;;;;;6169587;28;80979;-65
2021/08/26 12:50:23;;;;;;;7.10;4.32;;;23.80;53.20;;;;;;6171742;28;81662;-65
2021/08/26 12:53:24;;;;;;;7.70;4.78;;;23.70;53.10;;;;;;6161801;28;81537;-65
2021/08/26 12:56:25;;;;;;;6.82;4.13;;;23.80;53.10;;;;;;6165105;28;81284;-65
2021/08/26 12:59:26;;;;;;;9.60;4.40;;;23.80;53.20;;;;;;6168402;28;80843;-65
2021/08/26 13:02:26;;;;;;;6.75;4.47;;;23.80;53.00;;;;;;6175366;28;81810;-65
2021/08/26 13:05:31;;;;;;;5.65;3.65;;;23.80;52.90;;;;;;6163288;28;81435;-66
2021/08/26 13:08:32;;;;;;;9.30;4.57;;;23.90;52.80;;;;;;6164696;28;80501;-65
2021/08/26 13:11:33;;;;;;;8.60;4.50;;;23.90;52.70;;;;;;6166410;28;80591;-65
2021/08/26 13:14:33;;;;;;;8.02;4.53;;;23.90;52.90;;;;;;6166480;28;81865;-65
2021/08/26 13:17:34;;;;;;;8.02;4.38;;;23.80;53.00;;;;;;6162164;28;80456;-65
2021/08/26 13:20:37;;;;;;;8.57;4.28;;;23.80;53.00;;;;;;6170288;28;80434;-65
2021/08/26 13:23:38;;;;;;;9.10;4.38;;;23.80;53.00;;;;;;6168351;28;80757;-65
2021/08/26 13:26:38;;;;;;;6.60;4.10;;;23.80;53.00;;;;;;6153930;28;81107;-66
2021/08/26 13:29:39;;;;;;;9.18;4.53;;;23.80;53.30;;;;;;6155110;28;80432;-65
2021/08/26 13:32:39;;;;;;;6.20;4.40;;;23.80;53.20;;;;;;6156381;28;81803;-65
2021/08/26 13:35:40;;;;;;;8.07;4.80;;;23.90;53.00;;;;;;6174501;28;80519;-65
2021/08/26 13:38:40;;;;;;;12.13;5.18;;;23.80;53.10;;;;;;6173956;28;80345;-65
2021/08/26 13:41:42;;;;;;;8.30;4.70;;;23.80;52.70;;;;;;6169928;28;80389;-65
2021/08/26 13:44:42;;;;;;;7.82;4.30;;;23.80;53.00;;;;;;6156449;28;80800;-64
2021/08/26 13:47:43;;;;;;;5.88;3.85;;;23.80;53.40;;;;;;6167391;28;82450;-65
2021/08/26 13:50:43;;;;;;;7.30;4.00;;;23.80;52.70;;;;;;6153535;28;81146;-66
2021/08/26 13:53:46;;;;;;;7.93;4.25;;;23.80;52.80;;;;;;6154256;28;80165;-65
2021/08/26 13:56:47;;;;;;;6.85;4.15;;;23.80;52.90;;;;;;6190140;28;81764;-67
2021/08/26 13:59:47;;;;;;;9.05;4.00;;;23.90;52.80;;;;;;6161280;28;80803;-65
2021/08/26 14:02:48;;;;;;;6.57;4.20;;;23.90;52.80;;;;;;6157860;28;81315;-66
2021/08/26 14:05:48;;;;;;;8.07;4.63;;;23.90;52.70;;;;;;6171312;28;81765;-65
2021/08/26 14:08:49;;;;;;;7.00;4.35;;;23.80;52.90;;;;;;6157380;28;80381;-67
2021/08/26 14:11:49;;;;;;;6.20;4.03;;;23.90;52.90;;;;;;6167168;28;80468;-65
2021/08/26 14:14:50;;;;;;;9.23;4.50;;;23.90;53.10;;;;;;6173464;28;81481;-64
2021/08/26 14:17:50;;;;;;;6.55;4.00;;;23.80;53.20;;;;;;6155500;28;80874;-64
2021/08/26 14:20:51;;;;;;;6.28;4.18;;;23.80;53.10;;;;;;6176624;28;80936;-66
2021/08/26 14:23:51;;;;;;;6.35;3.67;;;23.90;53.30;;;;;;6177035;28;80172;-66
2021/08/26 14:26:52;;;;;;;6.47;4.00;;;23.90;53.40;;;;;;6171878;28;80422;-65
2021/08/26 14:29:52;;;;;;;11.68;4.00;;;23.90;53.20;;;;;;6170547;28;81886;-67
2021/08/26 14:32:53;;;;;;;5.80;3.97;;;23.80;53.50;;;;;;6156983;28;80635;-65
2021/08/26 14:35:53;;;;;;;9.73;4.00;;;23.90;53.50;;;;;;6160881;28;81975;-65
2021/08/26 14:38:53;;;;;;;9.57;4.00;;;23.90;53.10;;;;;;6151053;28;80305;-66
2021/08/26 14:41:54;;;;;;;7.53;3.88;;;23.90;53.10;;;;;;6158008;28;81754;-65
2021/08/26 14:44:54;;;;;;;8.57;4.18;;;23.90;53.10;;;;;;6162058;28;80810;-65
2021/08/26 14:47:55;;;;;;;6.47;3.85;;;23.90;53.30;;;;;;6163636;28;80554;-65
2021/08/26 14:50:55;;;;;;;7.88;3.92;;;23.90;53.50;;;;;;6163147;28;80428;-66
2021/08/26 14:53:56;;;;;;;5.80;4.05;;;23.80;53.80;;;;;;6158539;28;80949;-66
2021/08/26 14:56:56;;;;;;;6.88;3.75;;;23.80;53.90;;;;;;6158798;28;80106;-66
2021/08/26 14:59:57;;;;;;;6.45;3.95;;;23.80;53.50;;;;;;6190959;28;83133;-66
2021/08/26 15:02:57;;;;;;;6.30;4.10;;;23.90;53.60;;;;;;6153626;28;80901;-66
2021/08/26 15:05:58;;;;;;;5.38;3.63;;;23.90;53.60;;;;;;6157622;28;83900;-65
2021/08/26 15:08:58;;;;;;;8.90;4.03;;;23.90;53.90;;;;;;6156366;28;80610;-65
2021/08/26 15:11:59;;;;;;;6.90;3.78;;;23.90;53.50;;;;;;6158355;28;82489;-65
2021/08/26 15:14:59;;;;;;;6.32;3.88;;;23.90;53.30;;;;;;6147570;28;83251;-65
2021/08/26 15:18:02;;;;;;;6.93;3.88;;;23.90;53.30;;;;;;6158349;28;80921;-64
2021/08/26 15:21:03;;;;;;;6.85;3.75;;;23.90;53.00;;;;;;6160580;28;81310;-64
2021/08/26 15:24:06;;;;;;;7.57;3.60;;;24.00;53.10;;;;;;6154085;28;81853;-64
2021/08/26 15:27:06;;;;;;;7.10;3.90;;;23.90;53.10;;;;;;6158713;28;80472;-64
2021/08/26 15:30:07;;;;;;;7.18;3.95;;;23.90;53.20;;;;;;6161503;28;81121;-65
2021/08/26 15:33:07;;;;;;;10.20;3.67;;;23.90;53.30;;;;;;6157701;28;80616;-65